sensor_id;sensor_type;location;lat;lon;timestamp;temperature;humidity
17697;DHT22;8967;47.984;7.842;2023-05-14T00:00:12;12.90;99.90
17697;DHT22;8967;47.984;7.842;2023-05-14T00:02:39;12.80;99.90
17697;DHT22;8967;47.984;7.842;2023-05-14T00:05:07;12.80;99.90
17697;DHT22;8967;47.984;7.842;2023-05-14T00:07:37;12.70;99.90
17697;DHT22;8967;47.984;7.842;2023-05-14T00:10:06;12.70;99.90
17697;DHT22;8967;47.984;7.842;2023-05-14T00:12:33;12.70;99.90
17697;DHT22;8967;47.984;7.842;2023-05-14T00:15:00;12.70;99.90
17697;DHT22;8967;47.984;7.842;2023-05-14T00:17:27;12.60;99.90
17697;DHT22;8967;47.984;7.842;2023-05-14T00:19:54;12.60;99.90
17697;DHT22;8967;47.984;7.842;2023-05-14T00:22:24;12.60;99.90
17697;DHT22;8967;47.984;7.842;2023-05-14T00:24:53;12.60;99.90
17697;DHT22;8967;47.984;7.842;2023-05-14T00:27:21;12.50;99.90
17697;DHT22;8967;47.984;7.842;2023-05-14T00:29:48;12.50;99.90
17697;DHT22;8967;47.984;7.842;2023-05-14T00:32:15;12.50;99.90
17697;DHT22;8967;47.984;7.842;2023-05-14T00:34:42;12.40;99.90
17697;DHT22;8967;47.984;7.842;2023-05-14T00:37:09;12.40;99.90
17697;DHT22;8967;47.984;7.842;2023-05-14T00:39:38;12.40;99.90
17697;DHT22;8967;47.984;7.842;2023-05-14T00:42:05;12.30;99.90
17697;DHT22;8967;47.984;7.842;2023-05-14T00:44:34;12.30;99.90
17697;DHT22;8967;47.984;7.842;2023-05-14T00:47:01;12.30;99.90
17697;DHT22;8967;47.984;7.842;2023-05-14T00:49:28;12.20;99.90
17697;DHT22;8967;47.984;7.842;2023-05-14T00:51:55;12.20;99.90
17697;DHT22;8967;47.984;7.842;2023-05-14T00:54:23;12.10;99.90
17697;DHT22;8967;47.984;7.842;2023-05-14T00:56:53;12.10;99.90
17697;DHT22;8967;47.984;7.842;2023-05-14T00:59:20;12.10;99.90
17697;DHT22;8967;47.984;7.842;2023-05-14T01:01:48;12.10;99.90
17697;DHT22;8967;47.984;7.842;2023-05-14T01:04:15;12.10;99.90
17697;DHT22;8967;47.984;7.842;2023-05-14T01:06:49;12.00;99.90
17697;DHT22;8967;47.984;7.842;2023-05-14T01:09:24;12.00;99.90
17697;DHT22;8967;47.984;7.842;2023-05-14T01:11:55;12.00;99.90
17697;DHT22;8967;47.984;7.842;2023-05-14T01:14:27;12.00;99.90
17697;DHT22;8967;47.984;7.842;2023-05-14T01:17:01;11.90;99.90
17697;DHT22;8967;47.984;7.842;2023-05-14T01:19:36;11.90;99.90
17697;DHT22;8967;47.984;7.842;2023-05-14T01:22:06;11.90;99.90
17697;DHT22;8967;47.984;7.842;2023-05-14T01:24:33;11.90;99.90
17697;DHT22;8967;47.984;7.842;2023-05-14T01:27:05;11.90;99.90
17697;DHT22;8967;47.984;7.842;2023-05-14T01:29:37;11.90;99.90
17697;DHT22;8967;47.984;7.842;2023-05-14T01:32:07;11.80;99.90
17697;DHT22;8967;47.984;7.842;2023-05-14T01:34:39;11.90;99.90
17697;DHT22;8967;47.984;7.842;2023-05-14T01:37:09;11.90;99.90
17697;DHT22;8967;47.984;7.842;2023-05-14T01:39:37;11.90;99.90
17697;DHT22;8967;47.984;7.842;2023-05-14T01:42:07;11.90;99.90
17697;DHT22;8967;47.984;7.842;2023-05-14T01:44:35;11.90;99.90
17697;DHT22;8967;47.984;7.842;2023-05-14T01:47:05;11.90;99.90
17697;DHT22;8967;47.984;7.842;2023-05-14T01:49:32;11.90;99.90
17697;DHT22;8967;47.984;7.842;2023-05-14T01:51:58;11.90;99.90
17697;DHT22;8967;47.984;7.842;2023-05-14T01:54:27;11.90;99.90
17697;DHT22;8967;47.984;7.842;2023-05-14T01:56:54;11.90;99.90
17697;DHT22;8967;47.984;7.842;2023-05-14T01:59:20;11.90;99.90
17697;DHT22;8967;47.984;7.842;2023-05-14T02:01:47;11.90;99.90
17697;DHT22;8967;47.984;7.842;2023-05-14T02:04:14;11.90;99.90
17697;DHT22;8967;47.984;7.842;2023-05-14T02:06:41;11.90;99.90
17697;DHT22;8967;47.984;7.842;2023-05-14T02:09:08;11.90;99.90
17697;DHT22;8967;47.984;7.842;2023-05-14T02:11:39;12.00;99.90
17697;DHT22;8967;47.984;7.842;2023-05-14T02:14:08;12.00;99.90
17697;DHT22;8967;47.984;7.842;2023-05-14T02:16:35;12.00;99.90
17697;DHT22;8967;47.984;7.842;2023-05-14T02:19:02;12.00;99.90
17697;DHT22;8967;47.984;7.842;2023-05-14T02:21:29;12.00;99.90
17697;DHT22;8967;47.984;7.842;2023-05-14T02:23:56;12.00;99.90
17697;DHT22;8967;47.984;7.842;2023-05-14T02:26:23;12.00;99.90
17697;DHT22;8967;47.984;7.842;2023-05-14T02:28:51;12.00;99.90
17697;DHT22;8967;47.984;7.842;2023-05-14T02:31:18;12.00;99.90
17697;DHT22;8967;47.984;7.842;2023-05-14T02:33:45;12.00;99.90
17697;DHT22;8967;47.984;7.842;2023-05-14T02:36:12;12.00;99.90
17697;DHT22;8967;47.984;7.842;2023-05-14T02:38:41;12.00;99.90
17697;DHT22;8967;47.984;7.842;2023-05-14T02:41:08;12.00;99.90
17697;DHT22;8967;47.984;7.842;2023-05-14T02:43:35;12.00;99.90
17697;DHT22;8967;47.984;7.842;2023-05-14T02:46:03;12.00;99.90
17697;DHT22;8967;47.984;7.842;2023-05-14T02:48:30;12.00;99.90
17697;DHT22;8967;47.984;7.842;2023-05-14T02:50:57;12.00;99.90
17697;DHT22;8967;47.984;7.842;2023-05-14T02:53:24;12.00;99.90
17697;DHT22;8967;47.984;7.842;2023-05-14T02:55:50;12.00;99.90
17697;DHT22;8967;47.984;7.842;2023-05-14T02:58:17;12.00;99.90
17697;DHT22;8967;47.984;7.842;2023-05-14T03:00:44;12.00;99.90
17697;DHT22;8967;47.984;7.842;2023-05-14T03:03:12;12.00;99.90
17697;DHT22;8967;47.984;7.842;2023-05-14T03:05:39;12.00;99.90
17697;DHT22;8967;47.984;7.842;2023-05-14T03:08:06;12.10;99.90
17697;DHT22;8967;47.984;7.842;2023-05-14T03:10:33;12.10;99.90
17697;DHT22;8967;47.984;7.842;2023-05-14T03:13:00;12.10;99.90
17697;DHT22;8967;47.984;7.842;2023-05-14T03:15:27;12.10;99.90
17697;DHT22;8967;47.984;7.842;2023-05-14T03:17:54;12.10;99.90
17697;DHT22;8967;47.984;7.842;2023-05-14T03:20:23;12.10;99.90
17697;DHT22;8967;47.984;7.842;2023-05-14T03:22:51;12.00;99.90
17697;DHT22;8967;47.984;7.842;2023-05-14T03:25:19;12.10;99.90
17697;DHT22;8967;47.984;7.842;2023-05-14T03:27:45;12.00;99.90
17697;DHT22;8967;47.984;7.842;2023-05-14T03:30:12;12.00;99.90
17697;DHT22;8967;47.984;7.842;2023-05-14T03:32:39;12.10;99.90
17697;DHT22;8967;47.984;7.842;2023-05-14T03:35:07;12.10;99.90
17697;DHT22;8967;47.984;7.842;2023-05-14T03:37:36;12.10;99.90
17697;DHT22;8967;47.984;7.842;2023-05-14T03:40:04;12.10;99.90
17697;DHT22;8967;47.984;7.842;2023-05-14T03:42:32;12.10;99.90
17697;DHT22;8967;47.984;7.842;2023-05-14T03:44:58;12.20;99.90
17697;DHT22;8967;47.984;7.842;2023-05-14T03:47:28;12.20;99.90
17697;DHT22;8967;47.984;7.842;2023-05-14T03:49:56;12.20;99.90
17697;DHT22;8967;47.984;7.842;2023-05-14T03:52:22;12.20;99.90
17697;DHT22;8967;47.984;7.842;2023-05-14T03:54:53;12.20;99.90
17697;DHT22;8967;47.984;7.842;2023-05-14T03:57:20;12.30;99.90
17697;DHT22;8967;47.984;7.842;2023-05-14T03:59:47;12.20;99.90
17697;DHT22;8967;47.984;7.842;2023-05-14T04:02:18;12.30;99.90
17697;DHT22;8967;47.984;7.842;2023-05-14T04:04:46;12.20;99.90
17697;DHT22;8967;47.984;7.842;2023-05-14T04:07:18;12.30;99.90
17697;DHT22;8967;47.984;7.842;2023-05-14T04:09:45;12.20;99.90
17697;DHT22;8967;47.984;7.842;2023-05-14T04:12:14;12.30;99.90
17697;DHT22;8967;47.984;7.842;2023-05-14T04:14:41;12.30;99.90
17697;DHT22;8967;47.984;7.842;2023-05-14T04:17:07;12.30;99.90
17697;DHT22;8967;47.984;7.842;2023-05-14T04:19:34;12.30;99.90
17697;DHT22;8967;47.984;7.842;2023-05-14T04:22:04;12.30;99.90
17697;DHT22;8967;47.984;7.842;2023-05-14T04:24:31;12.30;99.90
17697;DHT22;8967;47.984;7.842;2023-05-14T04:26:59;12.30;99.90
17697;DHT22;8967;47.984;7.842;2023-05-14T04:29:27;12.40;99.90
17697;DHT22;8967;47.984;7.842;2023-05-14T04:31:54;12.30;99.90
17697;DHT22;8967;47.984;7.842;2023-05-14T04:34:21;12.40;99.90
17697;DHT22;8967;47.984;7.842;2023-05-14T04:36:47;12.30;99.90
17697;DHT22;8967;47.984;7.842;2023-05-14T04:39:14;12.30;99.90
17697;DHT22;8967;47.984;7.842;2023-05-14T04:41:41;12.30;99.90
17697;DHT22;8967;47.984;7.842;2023-05-14T04:44:11;12.40;99.90
17697;DHT22;8967;47.984;7.842;2023-05-14T04:46:40;12.40;99.90
17697;DHT22;8967;47.984;7.842;2023-05-14T04:49:09;12.40;99.90
17697;DHT22;8967;47.984;7.842;2023-05-14T04:51:38;12.40;99.90
17697;DHT22;8967;47.984;7.842;2023-05-14T04:54:05;12.50;99.90
17697;DHT22;8967;47.984;7.842;2023-05-14T04:56:32;12.50;99.90
17697;DHT22;8967;47.984;7.842;2023-05-14T04:58:58;12.50;99.90
17697;DHT22;8967;47.984;7.842;2023-05-14T05:01:25;12.60;99.90
17697;DHT22;8967;47.984;7.842;2023-05-14T05:03:53;12.60;99.90
17697;DHT22;8967;47.984;7.842;2023-05-14T05:06:22;12.60;99.90
17697;DHT22;8967;47.984;7.842;2023-05-14T05:08:49;12.60;99.90
17697;DHT22;8967;47.984;7.842;2023-05-14T05:11:15;12.70;99.90
17697;DHT22;8967;47.984;7.842;2023-05-14T05:13:42;12.70;99.90
17697;DHT22;8967;47.984;7.842;2023-05-14T05:16:09;12.70;99.90
17697;DHT22;8967;47.984;7.842;2023-05-14T05:18:36;12.70;99.90
17697;DHT22;8967;47.984;7.842;2023-05-14T05:21:05;12.70;99.90
17697;DHT22;8967;47.984;7.842;2023-05-14T05:23:32;12.70;99.90
17697;DHT22;8967;47.984;7.842;2023-05-14T05:25:58;12.70;99.90
17697;DHT22;8967;47.984;7.842;2023-05-14T05:28:25;12.70;99.90
17697;DHT22;8967;47.984;7.842;2023-05-14T05:30:52;12.70;99.90
17697;DHT22;8967;47.984;7.842;2023-05-14T05:33:19;12.70;99.90
17697;DHT22;8967;47.984;7.842;2023-05-14T05:35:46;12.70;99.90
17697;DHT22;8967;47.984;7.842;2023-05-14T05:38:16;12.70;99.90
17697;DHT22;8967;47.984;7.842;2023-05-14T05:40:43;12.70;99.90
17697;DHT22;8967;47.984;7.842;2023-05-14T05:43:10;12.70;99.90
17697;DHT22;8967;47.984;7.842;2023-05-14T05:45:38;12.70;99.90
17697;DHT22;8967;47.984;7.842;2023-05-14T05:48:07;12.80;99.90
17697;DHT22;8967;47.984;7.842;2023-05-14T05:50:34;12.80;99.90
17697;DHT22;8967;47.984;7.842;2023-05-14T05:53:01;12.80;99.90
17697;DHT22;8967;47.984;7.842;2023-05-14T05:55:32;12.80;99.90
17697;DHT22;8967;47.984;7.842;2023-05-14T05:58:01;12.90;99.90
17697;DHT22;8967;47.984;7.842;2023-05-14T06:00:28;12.90;99.90
17697;DHT22;8967;47.984;7.842;2023-05-14T06:02:58;12.90;99.90
17697;DHT22;8967;47.984;7.842;2023-05-14T06:05:25;12.90;99.90
17697;DHT22;8967;47.984;7.842;2023-05-14T06:07:51;12.90;99.90
17697;DHT22;8967;47.984;7.842;2023-05-14T06:10:19;12.90;99.90
17697;DHT22;8967;47.984;7.842;2023-05-14T06:12:47;13.00;99.90
17697;DHT22;8967;47.984;7.842;2023-05-14T06:15:14;13.00;99.90
17697;DHT22;8967;47.984;7.842;2023-05-14T06:17:41;13.00;99.90
17697;DHT22;8967;47.984;7.842;2023-05-14T06:20:08;13.00;99.90
17697;DHT22;8967;47.984;7.842;2023-05-14T06:22:38;13.10;99.90
17697;DHT22;8967;47.984;7.842;2023-05-14T06:25:06;13.10;99.90
17697;DHT22;8967;47.984;7.842;2023-05-14T06:27:33;13.10;99.90
17697;DHT22;8967;47.984;7.842;2023-05-14T06:30:05;13.10;99.90
17697;DHT22;8967;47.984;7.842;2023-05-14T06:32:34;13.10;99.90
17697;DHT22;8967;47.984;7.842;2023-05-14T06:35:01;13.10;99.90
17697;DHT22;8967;47.984;7.842;2023-05-14T06:37:28;13.20;99.90
17697;DHT22;8967;47.984;7.842;2023-05-14T06:39:55;13.20;99.90
17697;DHT22;8967;47.984;7.842;2023-05-14T06:42:22;13.20;99.90
17697;DHT22;8967;47.984;7.842;2023-05-14T06:44:49;13.30;99.90
17697;DHT22;8967;47.984;7.842;2023-05-14T06:47:17;13.30;99.90
17697;DHT22;8967;47.984;7.842;2023-05-14T06:49:44;13.30;99.90
17697;DHT22;8967;47.984;7.842;2023-05-14T06:52:11;13.40;99.90
17697;DHT22;8967;47.984;7.842;2023-05-14T06:54:37;13.40;99.90
17697;DHT22;8967;47.984;7.842;2023-05-14T06:57:05;13.40;99.90
17697;DHT22;8967;47.984;7.842;2023-05-14T06:59:31;13.40;99.90
17697;DHT22;8967;47.984;7.842;2023-05-14T07:01:58;13.40;99.90
17697;DHT22;8967;47.984;7.842;2023-05-14T07:04:27;13.50;99.90
17697;DHT22;8967;47.984;7.842;2023-05-14T07:06:54;13.50;99.90
17697;DHT22;8967;47.984;7.842;2023-05-14T07:09:23;13.50;99.90
17697;DHT22;8967;47.984;7.842;2023-05-14T07:11:50;13.60;99.90
17697;DHT22;8967;47.984;7.842;2023-05-14T07:14:17;13.60;99.90
17697;DHT22;8967;47.984;7.842;2023-05-14T07:16:44;13.70;99.90
17697;DHT22;8967;47.984;7.842;2023-05-14T07:19:11;13.70;99.90
17697;DHT22;8967;47.984;7.842;2023-05-14T07:21:39;13.80;99.90
17697;DHT22;8967;47.984;7.842;2023-05-14T07:24:06;13.80;99.90
17697;DHT22;8967;47.984;7.842;2023-05-14T07:26:33;13.90;99.90
17697;DHT22;8967;47.984;7.842;2023-05-14T07:29:00;13.90;99.90
17697;DHT22;8967;47.984;7.842;2023-05-14T07:31:27;13.90;99.90
17697;DHT22;8967;47.984;7.842;2023-05-14T07:33:54;14.00;99.90
17697;DHT22;8967;47.984;7.842;2023-05-14T07:36:21;14.00;99.90
17697;DHT22;8967;47.984;7.842;2023-05-14T07:38:49;14.00;99.90
17697;DHT22;8967;47.984;7.842;2023-05-14T07:41:16;14.00;99.90
17697;DHT22;8967;47.984;7.842;2023-05-14T07:43:43;14.10;99.90
17697;DHT22;8967;47.984;7.842;2023-05-14T07:46:09;14.10;99.90
17697;DHT22;8967;47.984;7.842;2023-05-14T07:48:36;14.10;99.90
17697;DHT22;8967;47.984;7.842;2023-05-14T07:51:03;14.20;99.90
17697;DHT22;8967;47.984;7.842;2023-05-14T07:53:30;14.20;99.90
17697;DHT22;8967;47.984;7.842;2023-05-14T07:55:58;14.30;99.90
17697;DHT22;8967;47.984;7.842;2023-05-14T07:58:25;14.30;99.90
17697;DHT22;8967;47.984;7.842;2023-05-14T08:00:53;14.30;99.90
17697;DHT22;8967;47.984;7.842;2023-05-14T08:03:21;14.40;99.90
17697;DHT22;8967;47.984;7.842;2023-05-14T08:05:48;14.40;99.90
17697;DHT22;8967;47.984;7.842;2023-05-14T08:08:17;14.50;99.90
17697;DHT22;8967;47.984;7.842;2023-05-14T08:10:43;14.50;99.90
17697;DHT22;8967;47.984;7.842;2023-05-14T08:13:12;14.50;99.90
17697;DHT22;8967;47.984;7.842;2023-05-14T08:15:39;14.60;99.90
17697;DHT22;8967;47.984;7.842;2023-05-14T08:18:05;14.60;99.90
17697;DHT22;8967;47.984;7.842;2023-05-14T08:20:32;14.60;99.90
17697;DHT22;8967;47.984;7.842;2023-05-14T08:22:59;14.60;99.90
17697;DHT22;8967;47.984;7.842;2023-05-14T08:25:26;14.70;99.90
17697;DHT22;8967;47.984;7.842;2023-05-14T08:27:53;14.70;99.90
17697;DHT22;8967;47.984;7.842;2023-05-14T08:30:24;14.70;99.90
17697;DHT22;8967;47.984;7.842;2023-05-14T08:32:53;14.80;99.90
17697;DHT22;8967;47.984;7.842;2023-05-14T08:35:20;14.80;99.90
17697;DHT22;8967;47.984;7.842;2023-05-14T08:37:46;14.80;99.90
17697;DHT22;8967;47.984;7.842;2023-05-14T08:40:15;14.80;99.90
17697;DHT22;8967;47.984;7.842;2023-05-14T08:42:43;14.90;99.90
17697;DHT22;8967;47.984;7.842;2023-05-14T08:45:16;14.90;99.90
17697;DHT22;8967;47.984;7.842;2023-05-14T08:47:47;14.90;99.90
17697;DHT22;8967;47.984;7.842;2023-05-14T08:50:15;15.00;99.90
17697;DHT22;8967;47.984;7.842;2023-05-14T08:52:42;15.00;99.90
17697;DHT22;8967;47.984;7.842;2023-05-14T08:55:11;15.10;99.90
17697;DHT22;8967;47.984;7.842;2023-05-14T08:57:38;15.20;99.90
17697;DHT22;8967;47.984;7.842;2023-05-14T09:00:05;15.20;99.90
17697;DHT22;8967;47.984;7.842;2023-05-14T09:02:39;15.30;99.90
17697;DHT22;8967;47.984;7.842;2023-05-14T09:05:09;15.40;99.90
17697;DHT22;8967;47.984;7.842;2023-05-14T09:07:39;15.50;99.90
17697;DHT22;8967;47.984;7.842;2023-05-14T09:10:07;15.60;99.90
17697;DHT22;8967;47.984;7.842;2023-05-14T09:12:34;15.70;99.90
17697;DHT22;8967;47.984;7.842;2023-05-14T09:15:01;15.80;99.90
17697;DHT22;8967;47.984;7.842;2023-05-14T09:17:29;15.80;99.90
17697;DHT22;8967;47.984;7.842;2023-05-14T09:19:56;15.90;99.90
17697;DHT22;8967;47.984;7.842;2023-05-14T09:22:28;15.90;99.90
17697;DHT22;8967;47.984;7.842;2023-05-14T09:25:03;15.90;99.90
17697;DHT22;8967;47.984;7.842;2023-05-14T09:27:32;16.00;99.90
17697;DHT22;8967;47.984;7.842;2023-05-14T09:30:07;16.00;99.90
17697;DHT22;8967;47.984;7.842;2023-05-14T09:32:38;16.00;99.90
17697;DHT22;8967;47.984;7.842;2023-05-14T09:35:13;16.00;99.90
17697;DHT22;8967;47.984;7.842;2023-05-14T09:37:44;16.10;99.90
17697;DHT22;8967;47.984;7.842;2023-05-14T09:40:14;16.10;99.90
17697;DHT22;8967;47.984;7.842;2023-05-14T09:42:42;16.10;99.90
17697;DHT22;8967;47.984;7.842;2023-05-14T09:45:10;16.20;99.90
17697;DHT22;8967;47.984;7.842;2023-05-14T09:47:37;16.20;99.90
17697;DHT22;8967;47.984;7.842;2023-05-14T09:50:06;16.30;99.90
17697;DHT22;8967;47.984;7.842;2023-05-14T09:52:33;16.30;99.90
17697;DHT22;8967;47.984;7.842;2023-05-14T09:55:02;16.30;99.90
17697;DHT22;8967;47.984;7.842;2023-05-14T09:57:29;16.40;99.90
17697;DHT22;8967;47.984;7.842;2023-05-14T09:59:56;16.40;99.90
17697;DHT22;8967;47.984;7.842;2023-05-14T10:02:24;16.40;99.90
17697;DHT22;8967;47.984;7.842;2023-05-14T10:04:52;16.40;99.90
17697;DHT22;8967;47.984;7.842;2023-05-14T10:07:28;16.50;99.90
17697;DHT22;8967;47.984;7.842;2023-05-14T10:10:00;16.50;99.90
17697;DHT22;8967;47.984;7.842;2023-05-14T10:12:32;16.50;99.90
17697;DHT22;8967;47.984;7.842;2023-05-14T10:15:02;16.50;99.90
17697;DHT22;8967;47.984;7.842;2023-05-14T10:17:31;16.60;99.90
17697;DHT22;8967;47.984;7.842;2023-05-14T10:19:59;16.60;99.90
17697;DHT22;8967;47.984;7.842;2023-05-14T10:22:30;16.60;99.90
17697;DHT22;8967;47.984;7.842;2023-05-14T10:24:59;16.60;99.90
17697;DHT22;8967;47.984;7.842;2023-05-14T10:27:26;16.60;99.90
17697;DHT22;8967;47.984;7.842;2023-05-14T10:29:55;16.70;99.90
17697;DHT22;8967;47.984;7.842;2023-05-14T10:32:23;16.70;99.90
17697;DHT22;8967;47.984;7.842;2023-05-14T10:34:51;16.70;99.90
17697;DHT22;8967;47.984;7.842;2023-05-14T10:37:22;16.70;99.90
17697;DHT22;8967;47.984;7.842;2023-05-14T10:39:51;16.80;99.90
17697;DHT22;8967;47.984;7.842;2023-05-14T10:42:20;16.70;99.90
17697;DHT22;8967;47.984;7.842;2023-05-14T10:44:50;16.70;99.90
17697;DHT22;8967;47.984;7.842;2023-05-14T10:47:20;16.70;99.90
17697;DHT22;8967;47.984;7.842;2023-05-14T10:49:53;16.70;99.90
17697;DHT22;8967;47.984;7.842;2023-05-14T10:52:20;16.70;99.90
17697;DHT22;8967;47.984;7.842;2023-05-14T10:54:51;16.70;99.90
17697;DHT22;8967;47.984;7.842;2023-05-14T10:57:22;16.70;99.90
17697;DHT22;8967;47.984;7.842;2023-05-14T10:59:51;16.70;99.90
17697;DHT22;8967;47.984;7.842;2023-05-14T11:02:24;16.70;99.90
17697;DHT22;8967;47.984;7.842;2023-05-14T11:04:55;16.80;99.90
17697;DHT22;8967;47.984;7.842;2023-05-14T11:07:25;16.80;99.90
17697;DHT22;8967;47.984;7.842;2023-05-14T11:09:54;16.80;99.90
17697;DHT22;8967;47.984;7.842;2023-05-14T11:12:25;16.80;99.90
17697;DHT22;8967;47.984;7.842;2023-05-14T11:14:52;16.90;99.90
17697;DHT22;8967;47.984;7.842;2023-05-14T11:17:20;16.90;99.90
17697;DHT22;8967;47.984;7.842;2023-05-14T11:19:48;16.90;99.90
17697;DHT22;8967;47.984;7.842;2023-05-14T11:22:15;16.90;99.90
17697;DHT22;8967;47.984;7.842;2023-05-14T11:24:42;16.90;99.90
17697;DHT22;8967;47.984;7.842;2023-05-14T11:27:09;16.90;99.90
17697;DHT22;8967;47.984;7.842;2023-05-14T11:29:37;17.00;99.90
17697;DHT22;8967;47.984;7.842;2023-05-14T11:32:04;17.00;99.80
17697;DHT22;8967;47.984;7.842;2023-05-14T11:34:32;17.00;99.60
17697;DHT22;8967;47.984;7.842;2023-05-14T11:37:05;17.00;99.60
17697;DHT22;8967;47.984;7.842;2023-05-14T11:39:32;17.00;99.50
17697;DHT22;8967;47.984;7.842;2023-05-14T11:42:02;17.00;99.50
17697;DHT22;8967;47.984;7.842;2023-05-14T11:44:29;17.00;99.10
17697;DHT22;8967;47.984;7.842;2023-05-14T11:46:57;17.00;98.80
17697;DHT22;8967;47.984;7.842;2023-05-14T11:49:25;17.00;98.70
17697;DHT22;8967;47.984;7.842;2023-05-14T11:51:56;17.00;98.60
17697;DHT22;8967;47.984;7.842;2023-05-14T11:54:26;17.00;98.30
17697;DHT22;8967;47.984;7.842;2023-05-14T11:56:54;17.00;98.10
17697;DHT22;8967;47.984;7.842;2023-05-14T11:59:23;16.90;97.60
17697;DHT22;8967;47.984;7.842;2023-05-14T12:01:50;16.90;97.70
17697;DHT22;8967;47.984;7.842;2023-05-14T12:04:18;16.80;97.40
17697;DHT22;8967;47.984;7.842;2023-05-14T12:06:49;16.80;97.60
17697;DHT22;8967;47.984;7.842;2023-05-14T12:09:17;16.80;97.80
17697;DHT22;8967;47.984;7.842;2023-05-14T12:11:46;16.80;97.90
17697;DHT22;8967;47.984;7.842;2023-05-14T12:14:14;16.80;98.10
17697;DHT22;8967;47.984;7.842;2023-05-14T12:16:43;16.80;98.20
17697;DHT22;8967;47.984;7.842;2023-05-14T12:19:12;16.80;98.50
17697;DHT22;8967;47.984;7.842;2023-05-14T12:21:39;16.90;99.00
17697;DHT22;8967;47.984;7.842;2023-05-14T12:24:09;16.80;98.80
17697;DHT22;8967;47.984;7.842;2023-05-14T12:26:36;16.90;98.50
17697;DHT22;8967;47.984;7.842;2023-05-14T12:29:05;16.90;98.20
17697;DHT22;8967;47.984;7.842;2023-05-14T12:31:33;16.90;98.00
17697;DHT22;8967;47.984;7.842;2023-05-14T12:34:01;16.90;98.20
17697;DHT22;8967;47.984;7.842;2023-05-14T12:36:28;16.90;98.40
17697;DHT22;8967;47.984;7.842;2023-05-14T12:39:00;16.90;98.50
17697;DHT22;8967;47.984;7.842;2023-05-14T12:41:29;16.90;98.50
17697;DHT22;8967;47.984;7.842;2023-05-14T12:43:56;16.90;98.60
17697;DHT22;8967;47.984;7.842;2023-05-14T12:46:26;16.90;98.50
17697;DHT22;8967;47.984;7.842;2023-05-14T12:48:53;16.80;97.80
17697;DHT22;8967;47.984;7.842;2023-05-14T12:51:20;16.80;98.00
17697;DHT22;8967;47.984;7.842;2023-05-14T12:53:48;16.80;98.30
17697;DHT22;8967;47.984;7.842;2023-05-14T12:56:18;16.90;98.30
17697;DHT22;8967;47.984;7.842;2023-05-14T12:58:46;16.80;98.50
17697;DHT22;8967;47.984;7.842;2023-05-14T13:01:13;16.80;99.40
17697;DHT22;8967;47.984;7.842;2023-05-14T13:03:41;16.80;99.90
17697;DHT22;8967;47.984;7.842;2023-05-14T13:06:08;16.70;99.90
17697;DHT22;8967;47.984;7.842;2023-05-14T13:08:35;16.60;99.90
17697;DHT22;8967;47.984;7.842;2023-05-14T13:11:02;16.60;99.90
17697;DHT22;8967;47.984;7.842;2023-05-14T13:13:28;16.50;99.90
17697;DHT22;8967;47.984;7.842;2023-05-14T13:15:55;16.50;99.90
17697;DHT22;8967;47.984;7.842;2023-05-14T13:18:22;16.40;99.90
17697;DHT22;8967;47.984;7.842;2023-05-14T13:20:53;16.30;99.90
17697;DHT22;8967;47.984;7.842;2023-05-14T13:23:20;16.30;99.90
17697;DHT22;8967;47.984;7.842;2023-05-14T13:25:47;16.20;99.90
17697;DHT22;8967;47.984;7.842;2023-05-14T13:28:14;16.20;99.90
17697;DHT22;8967;47.984;7.842;2023-05-14T13:30:41;16.20;99.90
17697;DHT22;8967;47.984;7.842;2023-05-14T13:33:28;16.20;99.90
17697;DHT22;8967;47.984;7.842;2023-05-14T13:35:56;16.20;99.90
17697;DHT22;8967;47.984;7.842;2023-05-14T13:38:23;16.10;99.90
17697;DHT22;8967;47.984;7.842;2023-05-14T13:40:50;16.10;99.90
17697;DHT22;8967;47.984;7.842;2023-05-14T13:43:19;16.10;99.90
17697;DHT22;8967;47.984;7.842;2023-05-14T13:45:46;16.10;99.90
17697;DHT22;8967;47.984;7.842;2023-05-14T13:48:13;16.10;99.90
17697;DHT22;8967;47.984;7.842;2023-05-14T13:50:40;16.10;99.90
17697;DHT22;8967;47.984;7.842;2023-05-14T13:53:08;16.10;99.90
17697;DHT22;8967;47.984;7.842;2023-05-14T13:55:35;16.10;99.90
17697;DHT22;8967;47.984;7.842;2023-05-14T13:58:02;16.20;99.90
17697;DHT22;8967;47.984;7.842;2023-05-14T14:00:29;16.20;99.90
17697;DHT22;8967;47.984;7.842;2023-05-14T14:02:55;16.20;99.90
17697;DHT22;8967;47.984;7.842;2023-05-14T14:05:22;16.30;99.90
17697;DHT22;8967;47.984;7.842;2023-05-14T14:07:52;16.30;99.90
17697;DHT22;8967;47.984;7.842;2023-05-14T14:10:21;16.40;99.90
17697;DHT22;8967;47.984;7.842;2023-05-14T14:12:48;16.40;99.90
17697;DHT22;8967;47.984;7.842;2023-05-14T14:15:15;16.50;99.90
17697;DHT22;8967;47.984;7.842;2023-05-14T14:17:44;16.40;99.90
17697;DHT22;8967;47.984;7.842;2023-05-14T14:20:11;16.50;99.90
17697;DHT22;8967;47.984;7.842;2023-05-14T14:22:39;16.50;99.90
17697;DHT22;8967;47.984;7.842;2023-05-14T14:25:06;16.50;99.90
17697;DHT22;8967;47.984;7.842;2023-05-14T14:27:36;16.50;99.90
17697;DHT22;8967;47.984;7.842;2023-05-14T14:30:05;16.50;99.90
17697;DHT22;8967;47.984;7.842;2023-05-14T14:32:44;16.60;99.90
17697;DHT22;8967;47.984;7.842;2023-05-14T14:35:12;16.60;99.90
17697;DHT22;8967;47.984;7.842;2023-05-14T14:37:42;16.60;99.90
17697;DHT22;8967;47.984;7.842;2023-05-14T14:40:14;16.70;99.90
17697;DHT22;8967;47.984;7.842;2023-05-14T14:42:43;16.70;99.90
17697;DHT22;8967;47.984;7.842;2023-05-14T14:45:10;16.70;99.90
17697;DHT22;8967;47.984;7.842;2023-05-14T14:47:43;16.80;99.90
17697;DHT22;8967;47.984;7.842;2023-05-14T14:50:10;16.80;99.90
17697;DHT22;8967;47.984;7.842;2023-05-14T14:52:37;16.80;99.90
17697;DHT22;8967;47.984;7.842;2023-05-14T14:55:05;16.80;99.90
17697;DHT22;8967;47.984;7.842;2023-05-14T14:57:32;16.80;99.90
17697;DHT22;8967;47.984;7.842;2023-05-14T15:00:00;16.80;99.90
17697;DHT22;8967;47.984;7.842;2023-05-14T15:02:28;16.80;99.90
17697;DHT22;8967;47.984;7.842;2023-05-14T15:04:55;16.80;99.90
17697;DHT22;8967;47.984;7.842;2023-05-14T15:07:22;16.90;99.90
17697;DHT22;8967;47.984;7.842;2023-05-14T15:09:48;16.80;99.90
17697;DHT22;8967;47.984;7.842;2023-05-14T15:12:15;16.90;99.90
17697;DHT22;8967;47.984;7.842;2023-05-14T15:14:42;16.90;99.90
17697;DHT22;8967;47.984;7.842;2023-05-14T15:17:11;16.90;99.90
17697;DHT22;8967;47.984;7.842;2023-05-14T15:19:38;16.90;99.90
17697;DHT22;8967;47.984;7.842;2023-05-14T15:22:05;17.00;99.90
17697;DHT22;8967;47.984;7.842;2023-05-14T15:24:32;17.00;99.90
17697;DHT22;8967;47.984;7.842;2023-05-14T15:27:02;17.00;99.90
17697;DHT22;8967;47.984;7.842;2023-05-14T15:29:29;17.00;99.90
17697;DHT22;8967;47.984;7.842;2023-05-14T15:31:57;17.00;99.90
17697;DHT22;8967;47.984;7.842;2023-05-14T15:34:28;17.00;99.90
17697;DHT22;8967;47.984;7.842;2023-05-14T15:36:57;17.00;99.90
17697;DHT22;8967;47.984;7.842;2023-05-14T15:39:24;17.10;99.90
17697;DHT22;8967;47.984;7.842;2023-05-14T15:41:50;17.10;99.90
17697;DHT22;8967;47.984;7.842;2023-05-14T15:44:17;17.10;99.90
17697;DHT22;8967;47.984;7.842;2023-05-14T15:46:44;17.10;99.90
17697;DHT22;8967;47.984;7.842;2023-05-14T15:49:11;17.10;99.90